Current Conditions
Misty
Conditions



Pressure
29.96 (inHG) - 1014.52 (mb)
Visibility

6.0 (mimiles) - 9.7 (km)
   Temperature
48  °F
9°C
48  °F
Dewpoint
100  %
 Humidity
   Wind Speed
8  mph
7  kts
13  km/h
3.6  m/s
   Wind Direction
 230°
South West
   Airport Data
KAVP
Location Wilkes-Barre / Scranton International 10 mi (16.09 km)
Metar :KAVP 231254Z 23007KT 6SM BR SCT004 09/09 A2996 RMK AO2 SLP142 T00940089
Wed 23rd October 08:54 am
   Raw Metar Info
Raw METAR is the most common format in the world for the transmission of observational weather data. It is highly standardized through the International Civil Aviation Organization (ICAO), which allows it to be understood throughout most of the world.
   API Info
Data Provided by
https://www.checkwx.com/weather/KAVP
   © Info
CSS/SVG/PHP scripts were developed by weather34.com for use in the weather34 template © 2015-2019

Guide Info provided by Metar-Wikipedia